Time;durP1;ratioP1;P1;durP2;ratioP2;P2;SDS_P1;SDS_P2;PMS_P1;PMS_P2;Temp;Humidity;BMP_temperature;BMP_pressure;BME280_temperature;BME280_humidity;BME280_pressure;Samples;Min_cycle;Max_cycle;Signal;HPM_P1;HPM_P2
2022/05/15 00:01:10;;;;;;;17.10;13.40;;;;;;;8.58;73.67;98166.99;104896;1287;24290;-85
2022/05/15 00:03:40;;;;;;;15.10;11.60;;;;;;;8.53;73.61;98169.34;104836;1288;22564;-86
2022/05/15 00:06:08;;;;;;;15.60;11.90;;;;;;;8.49;73.11;98167.31;104906;1287;24403;-87
2022/05/15 00:08:38;;;;;;;19.80;12.10;;;;;;;8.49;73.35;98167.81;104890;1288;23458;-86
2022/05/15 00:11:10;;;;;;;15.10;11.70;;;;;;;8.46;73.24;98171.59;104945;1287;22695;-85
2022/05/15 00:13:39;;;;;;;16.80;12.50;;;;;;;8.46;73.65;98171.27;105111;1287;22638;-85
2022/05/15 00:16:07;;;;;;;20.40;13.50;;;;;;;8.47;73.25;98172.66;104823;1288;22562;-85
2022/05/15 00:18:38;;;;;;;17.80;12.80;;;;;;;8.45;73.39;98171.86;104913;1287;25376;-86
2022/05/15 00:21:11;;;;;;;13.60;11.50;;;;;;;8.42;73.54;98171.50;104892;1289;25247;-87
2022/05/15 00:23:39;;;;;;;13.70;10.00;;;;;;;8.43;73.45;98172.71;105459;1287;25426;-85
2022/05/15 00:26:07;;;;;;;12.40;10.30;;;;;;;8.48;73.86;98169.38;106060;1287;26638;-86
2022/05/15 00:28:35;;;;;;;14.00;12.00;;;;;;;8.49;73.83;98169.84;105095;1289;25376;-87
2022/05/15 00:31:03;;;;;;;20.30;12.20;;;;;;;8.50;73.80;98167.20;104844;1287;22684;-85
2022/05/15 00:33:32;;;;;;;14.90;10.50;;;;;;;8.45;74.69;98166.60;105102;1287;24124;-88
2022/05/15 00:36:01;;;;;;;13.70;11.00;;;;;;;8.41;74.19;98161.84;104814;1287;22733;-86
2022/05/15 00:38:29;;;;;;;15.40;11.00;;;;;;;8.44;74.54;98164.13;104599;1287;22569;-85
2022/05/15 00:40:57;;;;;;;14.60;12.80;;;;;;;8.45;74.50;98163.05;104576;1288;23214;-86
2022/05/15 00:43:55;;;;;;;15.90;12.80;;;;;;;8.44;74.31;98162.73;104934;1287;22626;-86
2022/05/15 00:46:28;;;;;;;16.00;11.70;;;;;;;8.42;74.17;98165.59;104760;1289;25660;-86
2022/05/15 00:49:00;;;;;;;12.50;11.00;;;;;;;8.35;74.65;98168.29;105023;1287;23118;-85
2022/05/15 00:51:59;;;;;;;17.40;10.30;;;;;;;8.37;74.54;98167.05;104883;1290;24459;-86
2022/05/15 00:54:47;;;;;;;14.50;11.00;;;;;;;8.44;74.69;98170.25;104853;1288;22569;-86
2022/05/15 00:57:19;;;;;;;16.60;11.30;;;;;;;8.50;74.58;98170.22;104790;1287;25411;-85
2022/05/15 01:00:03;;;;;;;15.00;11.10;;;;;;;8.50;74.17;98171.02;104882;1287;25667;-84
2022/05/15 01:02:37;;;;;;;15.90;11.00;;;;;;;8.48;74.82;98169.00;104686;1287;22615;-87
2022/05/15 01:05:09;;;;;;;12.90;10.50;;;;;;;8.47;75.11;98172.29;104676;1287;25627;-87
2022/05/15 01:07:38;;;;;;;16.20;11.00;;;;;;;8.44;75.40;98171.33;104634;1287;24119;-84
2022/05/15 01:10:07;;;;;;;16.20;11.40;;;;;;;8.39;75.20;98171.88;104567;1289;22626;-86
2022/05/15 01:12:40;;;;;;;16.30;11.20;;;;;;;8.33;75.85;98175.01;104710;1288;22551;-86
2022/05/15 01:15:17;;;;;;;14.30;10.20;;;;;;;8.28;75.92;98175.40;104666;1287;22741;-86
2022/05/15 01:17:46;;;;;;;14.80;10.10;;;;;;;8.30;76.15;98177.55;104786;1287;22566;-87
2022/05/15 01:20:18;;;;;;;17.10;12.10;;;;;;;8.34;76.34;98178.39;104639;1287;22644;-84
2022/05/15 01:22:48;;;;;;;15.00;10.60;;;;;;;8.37;76.38;98174.61;104641;1287;22576;-80
2022/05/15 01:25:25;;;;;;;17.30;12.00;;;;;;;8.40;76.52;98179.25;104748;1287;25431;-87
2022/05/15 01:28:00;;;;;;;16.30;11.20;;;;;;;8.41;76.68;98179.92;104760;1288;22603;-84
2022/05/15 01:30:29;;;;;;;16.30;10.80;;;;;;;8.46;76.47;98171.69;104743;1287;24247;-86
2022/05/15 01:32:57;;;;;;;16.30;11.60;;;;;;;8.54;76.81;98175.88;104767;1287;22633;-83
2022/05/15 01:35:27;;;;;;;17.20;11.70;;;;;;;8.60;76.76;98174.81;105059;1287;22575;-85
2022/05/15 01:38:00;;;;;;;17.10;11.20;;;;;;;8.64;76.88;98173.23;104969;1287;22715;-86
2022/05/15 01:40:29;;;;;;;16.30;11.40;;;;;;;8.66;76.87;98175.59;104915;1287;25255;-85
2022/05/15 01:42:58;;;;;;;16.70;11.30;;;;;;;8.66;77.28;98172.64;104921;1289;25430;-86
2022/05/15 01:45:27;;;;;;;15.50;11.20;;;;;;;8.68;77.23;98172.02;104614;1289;24348;-87
2022/05/15 01:47:55;;;;;;;15.40;10.90;;;;;;;8.72;77.46;98176.84;104631;1287;22805;-83
2022/05/15 01:50:24;;;;;;;15.60;11.30;;;;;;;8.78;77.34;98174.64;104641;1287;26706;-84
2022/05/15 01:52:54;;;;;;;17.00;11.40;;;;;;;8.83;77.55;98175.31;104635;1287;25260;-85
2022/05/15 01:55:24;;;;;;;19.00;12.20;;;;;;;8.85;77.64;98175.23;104644;1288;25408;-87
2022/05/15 01:57:52;;;;;;;18.50;12.20;;;;;;;8.90;77.58;98175.46;104931;1287;22627;-83
2022/05/15 02:00:24;;;;;;;20.50;12.80;;;;;;;8.98;77.68;98173.38;104761;1287;23074;-84
2022/05/15 02:02:52;;;;;;;21.30;12.50;;;;;;;9.06;77.17;98174.05;105511;1287;22558;-86
2022/05/15 02:05:22;;;;;;;17.10;11.60;;;;;;;9.15;77.61;98173.87;104801;1287;23243;-86
2022/05/15 02:07:50;;;;;;;18.00;12.90;;;;;;;9.20;77.50;98175.05;104773;1289;22581;-86
2022/05/15 02:10:19;;;;;;;18.40;12.50;;;;;;;9.21;77.54;98174.73;105034;1287;22566;-84
2022/05/15 02:12:48;;;;;;;15.10;10.80;;;;;;;9.25;77.47;98174.67;104864;1289;24718;-86
2022/05/15 02:15:17;;;;;;;19.70;12.00;;;;;;;9.32;77.46;98173.39;105053;1288;23459;-85
2022/05/15 02:17:45;;;;;;;15.80;11.60;;;;;;;9.39;77.39;98175.43;105008;1287;22618;-85
2022/05/15 02:20:14;;;;;;;18.90;13.70;;;;;;;9.43;77.23;98172.85;104693;1291;23945;-84
2022/05/15 02:22:43;;;;;;;19.10;12.90;;;;;;;9.48;77.34;98172.42;104729;1288;25418;-85
2022/05/15 02:25:14;;;;;;;18.00;11.90;;;;;;;9.52;77.50;98172.92;104859;1287;22572;-86
2022/05/15 02:27:43;;;;;;;17.20;12.30;;;;;;;9.58;77.05;98178.13;104679;1287;22591;-84
2022/05/15 02:30:13;;;;;;;15.90;11.30;;;;;;;9.64;76.84;98178.88;104858;1290;23066;-86
2022/05/15 02:32:41;;;;;;;15.60;12.10;;;;;;;9.69;76.72;98181.73;104874;1289;22871;-83
2022/05/15 02:35:10;;;;;;;19.10;13.00;;;;;;;9.72;77.21;98183.05;104626;1288;24244;-85
2022/05/15 02:37:41;;;;;;;16.70;12.60;;;;;;;9.76;76.62;98185.37;104879;1287;25381;-86
2022/05/15 02:40:11;;;;;;;19.10;13.30;;;;;;;9.80;76.82;98183.06;105050;1287;22702;-86
2022/05/15 02:42:40;;;;;;;18.90;12.90;;;;;;;9.84;76.94;98187.38;104997;1287;22617;-85
2022/05/15 02:45:09;;;;;;;18.10;11.90;;;;;;;9.89;76.93;98189.48;104866;1288;22544;-86
2022/05/15 02:47:37;;;;;;;20.10;12.50;;;;;;;9.93;76.69;98183.03;104995;1287;24392;-83
2022/05/15 02:52:53;;;;;;;15.00;11.30;;;;;;;10.01;76.24;98186.66;106238;1290;26626;-85
2022/05/15 02:55:24;;;;;;;17.00;12.60;;;;;;;10.02;76.45;98184.48;104771;1287;23441;-87
2022/05/15 02:57:53;;;;;;;14.80;11.60;;;;;;;10.02;76.75;98181.95;105520;1287;24874;-86
2022/05/15 03:00:24;;;;;;;14.20;10.70;;;;;;;10.05;76.61;98183.55;106871;1287;22572;-84
2022/05/15 03:02:53;;;;;;;22.60;11.70;;;;;;;10.08;76.48;98182.63;106677;1287;22700;-86
2022/05/15 03:05:27;;;;;;;14.60;11.60;;;;;;;10.11;76.83;98185.08;105026;1287;22578;-85
2022/05/15 03:07:55;;;;;;;17.10;12.20;;;;;;;10.08;76.86;98185.54;105452;1287;22667;-82
2022/05/15 03:10:23;;;;;;;16.10;12.70;;;;;;;10.01;77.15;98185.25;108188;1287;25303;-85
2022/05/15 03:12:51;;;;;;;18.90;13.10;;;;;;;9.94;77.19;98186.98;105642;1288;24263;-85
2022/05/15 03:15:20;;;;;;;18.00;11.40;;;;;;;9.93;76.76;98182.48;105333;1287;22657;-85
2022/05/15 03:17:48;;;;;;;15.50;11.30;;;;;;;10.01;77.10;98184.33;105415;1287;22582;-85
2022/05/15 03:20:45;;;;;;;15.60;11.70;;;;;;;10.07;76.87;98178.72;105500;1288;23260;-86
2022/05/15 03:23:13;;;;;;;19.70;12.10;;;;;;;10.12;76.59;98179.41;105054;1287;22644;-85
2022/05/15 03:25:42;;;;;;;28.00;13.70;;;;;;;10.09;77.08;98188.32;105020;1287;25558;-85
2022/05/15 03:28:10;;;;;;;22.10;13.40;;;;;;;10.03;77.00;98194.70;104946;1290;25381;-86
2022/05/15 03:30:40;;;;;;;20.90;13.40;;;;;;;10.01;77.45;98198.59;104627;1289;22706;-86
2022/05/15 03:33:09;;;;;;;17.20;12.20;;;;;;;10.05;76.98;98198.23;105076;1287;25376;-85
2022/05/15 03:35:38;;;;;;;16.10;11.90;;;;;;;10.09;76.93;98199.24;105235;1287;25433;-85
2022/05/15 03:38:07;;;;;;;20.60;13.60;;;;;;;10.12;76.93;98195.67;107002;1287;22669;-85
2022/05/15 03:40:36;;;;;;;17.80;12.80;;;;;;;10.17;77.13;98196.70;107404;1287;22673;-85
2022/05/15 03:43:05;;;;;;;19.10;12.20;;;;;;;10.21;76.99;98199.98;105145;1287;22627;-86
2022/05/15 03:45:34;;;;;;;18.50;12.60;;;;;;;10.24;77.35;98201.40;105315;1287;22544;-85
2022/05/15 03:48:03;;;;;;;19.10;12.10;;;;;;;10.25;77.52;98202.29;104904;1288;22498;-86
2022/05/15 03:50:31;;;;;;;17.80;12.80;;;;;;;10.29;77.45;98201.84;105069;1287;22637;-86
2022/05/15 03:52:59;;;;;;;19.50;12.70;;;;;;;10.34;77.65;98204.09;104932;1287;25424;-87
2022/05/15 03:55:27;;;;;;;17.60;13.30;;;;;;;10.38;77.81;98205.01;105161;1287;22573;-85
2022/05/15 03:57:56;;;;;;;17.60;13.00;;;;;;;10.44;77.72;98209.45;105032;1287;25488;-85
2022/05/15 04:00:25;;;;;;;16.80;12.90;;;;;;;10.52;77.49;98212.04;104845;1287;22562;-84
2022/05/15 04:02:53;;;;;;;18.20;14.90;;;;;;;10.61;77.49;98214.67;104707;1287;25220;-87
2022/05/15 04:05:21;;;;;;;20.70;15.50;;;;;;;10.71;77.44;98214.33;104720;1287;24344;-87
2022/05/15 04:07:50;;;;;;;20.50;18.40;;;;;;;10.78;77.51;98214.86;105037;1287;23558;-86
2022/05/15 04:10:22;;;;;;;24.60;18.20;;;;;;;10.82;77.60;98211.08;104782;1288;22655;-87
2022/05/15 04:12:50;;;;;;;20.00;17.10;;;;;;;10.81;77.50;98199.95;104972;1287;25293;-86
2022/05/15 04:15:19;;;;;;;22.90;15.90;;;;;;;11.02;77.47;98214.50;104943;1289;22693;-87
2022/05/15 04:17:52;;;;;;;16.70;14.90;;;;;;;11.13;77.43;98218.31;105010;1287;25514;-86
2022/05/15 04:20:25;;;;;;;23.80;16.00;;;;;;;11.25;77.32;98219.26;104923;1289;22733;-86
2022/05/15 04:22:53;;;;;;;18.30;16.00;;;;;;;11.34;77.35;98218.45;104880;1287;22553;-85
2022/05/15 04:25:21;;;;;;;20.70;17.50;;;;;;;11.43;77.18;98216.03;104875;1287;22645;-87
2022/05/15 04:27:50;;;;;;;20.80;16.50;;;;;;;11.51;76.95;98212.33;104998;1287;22737;-83
2022/05/15 04:30:22;;;;;;;17.50;15.60;;;;;;;11.58;77.07;98212.71;104661;1287;23405;-86
2022/05/15 04:32:53;;;;;;;20.10;15.70;;;;;;;11.67;76.91;98222.19;104928;1287;24462;-85
2022/05/15 04:35:23;;;;;;;21.50;15.80;;;;;;;11.79;76.94;98226.52;104964;1287;22808;-86
2022/05/15 04:37:52;;;;;;;18.20;15.60;;;;;;;11.91;76.92;98226.98;105040;1287;22709;-86
2022/05/15 04:40:21;;;;;;;23.70;19.60;;;;;;;11.99;76.73;98224.06;104989;1287;22655;-85
2022/05/15 04:42:49;;;;;;;27.50;24.60;;;;;;;12.06;76.82;98227.89;105013;1287;22715;-84
2022/05/15 04:45:18;;;;;;;30.50;27.50;;;;;;;12.11;76.58;98231.41;104710;1287;22618;-85
2022/05/15 04:47:47;;;;;;;27.90;25.10;;;;;;;12.19;76.52;98233.63;105072;1287;22707;-86
2022/05/15 04:50:16;;;;;;;28.60;25.30;;;;;;;12.28;76.38;98234.91;105057;1287;24390;-86
2022/05/15 04:52:45;;;;;;;28.80;25.40;;;;;;;12.38;76.31;98238.95;104954;1287;22638;-85
2022/05/15 04:55:14;;;;;;;37.10;33.40;;;;;;;12.49;76.01;98244.63;105168;1286;22759;-86
2022/05/15 04:57:43;;;;;;;39.60;35.80;;;;;;;12.58;75.89;98243.73;104813;1287;22650;-87
2022/05/15 05:00:17;;;;;;;40.70;37.00;;;;;;;12.64;75.80;98249.17;105117;1287;24248;-86
2022/05/15 05:02:46;;;;;;;38.70;35.10;;;;;;;12.68;75.69;98250.45;104821;1288;22627;-85
2022/05/15 05:05:15;;;;;;;37.50;33.60;;;;;;;12.73;75.51;98248.34;104663;1287;24460;-86
2022/05/15 05:07:43;;;;;;;37.40;33.60;;;;;;;12.79;75.59;98252.27;104890;1287;24312;-84
2022/05/15 05:10:13;;;;;;;35.40;31.90;;;;;;;12.85;75.51;98257.92;104688;1287;24238;-86
2022/05/15 05:12:41;;;;;;;34.90;31.30;;;;;;;12.96;75.33;98265.34;105100;1287;22567;-86
2022/05/15 05:15:12;;;;;;;31.90;28.70;;;;;;;13.14;74.74;98267.59;104958;1288;25287;-84
2022/05/15 05:17:41;;;;;;;33.10;29.70;;;;;;;13.18;74.72;98267.18;104947;1287;22725;-85
2022/05/15 05:20:12;;;;;;;33.60;30.10;;;;;;;13.22;73.92;98272.11;104995;1287;25493;-85
2022/05/15 05:22:41;;;;;;;32.60;29.20;;;;;;;13.16;73.94;98270.82;104911;1287;22626;-86
2022/05/15 05:25:10;;;;;;;33.40;30.10;;;;;;;13.13;73.30;98268.92;105548;1288;22626;-85
2022/05/15 05:27:41;;;;;;;31.40;28.10;;;;;;;13.12;73.27;98275.27;104737;1287;25514;-85
2022/05/15 05:30:23;;;;;;;33.10;29.80;;;;;;;13.13;73.33;98275.83;104771;1288;25450;-87
2022/05/15 05:32:51;;;;;;;29.20;26.20;;;;;;;13.10;72.96;98274.02;105004;1287;22638;-85
2022/05/15 05:35:23;;;;;;;28.60;25.60;;;;;;;13.16;72.57;98278.08;105035;1287;22639;-86
2022/05/15 05:37:52;;;;;;;28.70;25.60;;;;;;;13.30;72.33;98276.94;104966;1287;22712;-83
2022/05/15 05:40:21;;;;;;;30.10;26.50;;;;;;;13.44;72.06;98274.11;105141;1287;25473;-85
2022/05/15 05:42:50;;;;;;;29.50;26.10;;;;;;;13.47;71.53;98281.86;105124;1287;22683;-86
2022/05/15 05:45:19;;;;;;;30.40;25.00;;;;;;;13.48;71.54;98285.88;105172;1287;24254;-85
2022/05/15 05:47:49;;;;;;;29.70;23.40;;;;;;;13.50;71.22;98286.20;104853;1287;22878;-85
2022/05/15 05:50:19;;;;;;;26.30;22.80;;;;;;;13.49;70.71;98289.25;104723;1287;22666;-86
2022/05/15 05:52:48;;;;;;;26.80;23.20;;;;;;;13.51;71.12;98286.94;104714;1289;24217;-85
2022/05/15 05:55:17;;;;;;;23.30;18.40;;;;;;;13.62;71.25;98292.35;105124;1287;22622;-86
2022/05/15 05:57:46;;;;;;;29.60;16.60;;;;;;;13.79;70.43;98294.30;105096;1287;24389;-85
2022/05/15 06:00:20;;;;;;;24.10;14.50;;;;;;;13.90;69.16;98288.99;105039;1287;25248;-85
2022/05/15 06:02:48;;;;;;;22.00;13.80;;;;;;;14.00;67.32;98289.11;105141;1287;25259;-84
2022/05/15 06:05:16;;;;;;;25.90;14.40;;;;;;;14.09;66.50;98286.82;104733;1289;22650;-85
2022/05/15 06:07:44;;;;;;;25.30;12.90;;;;;;;14.14;67.92;98283.83;105133;1287;25445;-84
2022/05/15 06:10:13;;;;;;;19.80;12.00;;;;;;;14.34;68.01;98289.38;104895;1287;25277;-84
2022/05/15 06:12:42;;;;;;;20.40;11.30;;;;;;;14.48;66.07;98291.85;105149;1287;24249;-86
2022/05/15 06:15:10;;;;;;;23.00;11.60;;;;;;;14.56;66.21;98290.05;104932;1289;22590;-84
2022/05/15 06:17:38;;;;;;;19.80;9.90;;;;;;;14.71;66.06;98291.62;105004;1287;22579;-85
2022/05/15 06:20:09;;;;;;;18.30;8.90;;;;;;;14.83;64.90;98294.34;105028;1287;22890;-86
2022/05/15 06:22:37;;;;;;;12.70;7.90;;;;;;;14.84;62.91;98296.99;105053;1287;25407;-83
2022/05/15 06:25:06;;;;;;;16.20;9.50;;;;;;;14.69;60.06;98298.51;105007;1287;24090;-86
2022/05/15 06:27:33;;;;;;;19.10;9.80;;;;;;;14.59;60.71;98302.43;105054;1287;25267;-84
2022/05/15 06:30:01;;;;;;;14.40;8.60;;;;;;;14.67;61.08;98297.64;105163;1287;23988;-86
2022/05/15 06:32:29;;;;;;;17.90;10.70;;;;;;;14.80;61.46;98301.89;105005;1287;22783;-86
2022/05/15 06:34:57;;;;;;;14.90;10.10;;;;;;;14.95;60.69;98302.35;104701;1287;22634;-84
2022/05/15 06:37:26;;;;;;;19.10;12.10;;;;;;;15.02;60.24;98301.66;104871;1287;22654;-85
2022/05/15 06:39:56;;;;;;;23.50;12.90;;;;;;;15.11;60.62;98300.86;104782;1287;22686;-83
2022/05/15 06:42:25;;;;;;;24.00;13.50;;;;;;;15.12;59.50;98307.70;105110;1287;23601;-85
2022/05/15 06:44:55;;;;;;;19.30;12.50;;;;;;;14.97;60.29;98304.58;104907;1287;22566;-84
2022/05/15 06:47:24;;;;;;;19.10;12.70;;;;;;;14.95;60.45;98305.83;104943;1287;22707;-86
2022/05/15 06:49:52;;;;;;;26.50;13.40;;;;;;;15.02;60.78;98303.21;105012;1287;23368;-85
2022/05/15 06:52:22;;;;;;;20.50;11.60;;;;;;;15.17;60.69;98302.61;105059;1287;22848;-85
2022/05/15 06:54:49;;;;;;;22.90;12.50;;;;;;;15.28;60.07;98307.06;104985;1287;22765;-84
2022/05/15 06:57:31;;;;;;;21.20;11.70;;;;;;;15.36;59.21;98307.52;104960;1287;26638;-85
2022/05/15 07:00:10;;;;;;;18.30;10.90;;;;;;;15.44;59.70;98302.75;105040;1287;22803;-85
2022/05/15 07:02:41;;;;;;;23.20;11.20;;;;;;;15.57;58.62;98306.89;105275;1287;22576;-84
2022/05/15 07:05:12;;;;;;;19.00;11.00;;;;;;;15.50;58.42;98312.55;105224;1287;25543;-84
2022/05/15 07:07:40;;;;;;;18.90;10.50;;;;;;;15.45;58.78;98308.48;105673;1287;22589;-84
2022/05/15 07:10:08;;;;;;;20.30;10.70;;;;;;;15.57;58.80;98306.29;104731;1287;22560;-84
2022/05/15 07:12:36;;;;;;;17.10;10.20;;;;;;;15.68;59.04;98303.83;104932;1287;22554;-85
2022/05/15 07:15:07;;;;;;;22.20;10.50;;;;;;;15.81;58.40;98309.57;104975;1287;22493;-86
2022/05/15 07:17:35;;;;;;;14.70;10.10;;;;;;;15.82;57.86;98307.45;105055;1287;22518;-84
2022/05/15 07:20:04;;;;;;;21.40;10.20;;;;;;;15.78;57.57;98312.00;104804;1289;22670;-84
2022/05/15 07:22:33;;;;;;;16.00;9.80;;;;;;;15.66;58.45;98306.45;104844;1287;24326;-86
2022/05/15 07:25:01;;;;;;;18.60;9.90;;;;;;;15.71;58.14;98306.58;104881;1287;22626;-86
2022/05/15 07:27:29;;;;;;;14.10;8.40;;;;;;;15.81;57.63;98308.52;105036;1287;24390;-86
2022/05/15 07:29:57;;;;;;;12.90;7.30;;;;;;;15.89;56.79;98305.81;104889;1287;25642;-85
2022/05/15 07:32:25;;;;;;;14.60;6.90;;;;;;;16.03;56.93;98309.30;104877;1287;22608;-85
2022/05/15 07:34:52;;;;;;;13.60;7.20;;;;;;;16.24;57.13;98306.34;105173;1287;22716;-84
2022/05/15 07:37:20;;;;;;;12.00;6.70;;;;;;;16.37;54.67;98311.15;105107;1287;25395;-84
2022/05/15 07:39:48;;;;;;;14.60;7.30;;;;;;;16.42;54.16;98311.48;105015;1287;22784;-85
2022/05/15 07:42:16;;;;;;;10.00;5.40;;;;;;;16.52;54.51;98314.07;105001;1287;23263;-85
2022/05/15 07:44:45;;;;;;;18.20;6.40;;;;;;;16.55;54.32;98311.55;104803;1287;24393;-85
2022/05/15 07:47:14;;;;;;;13.10;6.30;;;;;;;16.60;53.56;98320.39;104841;1287;22568;-85
2022/05/15 07:49:44;;;;;;;12.80;6.40;;;;;;;16.64;53.45;98320.63;104873;1287;22598;-84
2022/05/15 07:52:12;;;;;;;12.80;6.40;;;;;;;16.67;53.44;98318.40;105034;1288;22559;-85
2022/05/15 07:54:40;;;;;;;14.10;6.10;;;;;;;16.74;53.05;98314.58;104998;1288;22642;-85
2022/05/15 07:57:08;;;;;;;12.90;6.30;;;;;;;16.86;53.17;98320.28;104955;1287;22865;-85
2022/05/15 07:59:36;;;;;;;12.50;6.20;;;;;;;16.97;52.30;98315.58;105119;1287;27691;-86
2022/05/15 08:02:06;;;;;;;14.00;6.40;;;;;;;17.01;52.77;98322.40;104953;1287;25471;-85
2022/05/15 08:08:00;;;;;;;10.90;5.70;;;;;;;17.04;52.42;98323.98;105102;1287;22598;-85
2022/05/15 08:10:11;;;;;;;10.40;5.60;;;;;;;16.86;51.66;98323.42;105020;1287;24390;-85
2022/05/15 08:12:40;;;;;;;14.80;6.00;;;;;;;16.86;51.48;98323.94;105124;1287;22707;-83
2022/05/15 08:15:08;;;;;;;11.80;5.70;;;;;;;16.81;50.37;98327.61;105256;1287;22583;-86
2022/05/15 08:17:36;;;;;;;12.50;6.30;;;;;;;16.76;50.46;98326.69;105456;1287;22586;-85
2022/05/15 08:23:33;;;;;;;15.30;6.20;;;;;;;17.05;49.84;98327.59;104937;1287;22571;-84
2022/05/15 08:25:46;;;;;;;13.80;5.80;;;;;;;17.13;49.78;98322.13;105621;1287;22560;-83
2022/05/15 08:28:15;;;;;;;12.90;6.70;;;;;;;17.12;49.98;98323.41;105669;1287;22740;-86
2022/05/15 08:30:43;;;;;;;13.20;5.80;;;;;;;17.06;48.94;98323.75;105243;1286;22579;-85
2022/05/15 08:33:11;;;;;;;12.40;6.00;;;;;;;16.87;48.30;98330.59;105161;1287;23218;-84
2022/05/15 08:35:39;;;;;;;14.50;5.80;;;;;;;16.75;48.65;98326.95;104972;1287;24779;-86
2022/05/15 08:38:07;;;;;;;12.40;6.00;;;;;;;16.84;49.02;98330.62;104866;1289;23167;-86
2022/05/15 08:40:47;;;;;;;14.90;6.20;;;;;;;17.07;49.32;98326.73;105220;1287;22563;-85
2022/05/15 08:43:27;;;;;;;10.90;5.80;;;;;;;17.19;48.19;98330.55;105262;1287;22707;-85
2022/05/15 08:46:03;;;;;;;10.60;5.60;;;;;;;17.08;48.23;98329.59;105509;1287;24217;-84
2022/05/15 08:48:37;;;;;;;10.70;5.40;;;;;;;17.05;48.51;98326.92;105395;1287;22576;-87
2022/05/15 08:51:11;;;;;;;14.10;6.00;;;;;;;17.25;47.76;98330.63;105724;1287;22615;-85
2022/05/15 08:53:43;;;;;;;9.50;4.90;;;;;;;17.38;46.67;98332.58;104970;1287;24147;-86
2022/05/15 08:56:14;;;;;;;11.40;5.40;;;;;;;17.59;46.46;98329.98;105339;1287;22520;-85
2022/05/15 08:58:49;;;;;;;10.90;5.50;;;;;;;17.78;45.32;98324.02;104957;1287;22544;-88
2022/05/15 09:01:29;;;;;;;15.00;6.50;;;;;;;17.80;46.35;98339.17;104957;1287;22633;-86
2022/05/15 09:04:00;;;;;;;11.10;6.30;;;;;;;17.64;46.65;98338.20;105025;1289;22641;-86
2022/05/15 09:06:50;;;;;;;10.90;5.00;;;;;;;17.41;46.38;98338.60;104757;1287;22563;-86
2022/05/15 09:09:46;;;;;;;14.10;5.70;;;;;;;17.24;46.47;98334.41;105060;1287;22579;-87
2022/05/15 09:12:23;;;;;;;10.30;5.30;;;;;;;17.47;47.30;98330.74;104765;1287;24422;-86
2022/05/15 09:15:13;;;;;;;15.60;5.80;;;;;;;17.52;46.00;98329.02;105281;1287;22872;-85
2022/05/15 09:17:46;;;;;;;9.30;4.90;;;;;;;17.25;46.17;98332.96;104828;1287;25440;-85
2022/05/15 09:20:20;;;;;;;13.20;5.80;;;;;;;17.11;45.69;98338.95;105189;1287;24238;-86
2022/05/15 09:22:58;;;;;;;11.90;5.70;;;;;;;17.14;45.34;98334.02;105102;1287;23984;-86
2022/05/15 09:25:34;;;;;;;12.40;5.90;;;;;;;17.50;45.82;98328.95;105777;1287;25440;-85
2022/05/15 09:28:12;;;;;;;12.30;5.10;;;;;;;17.91;44.14;98331.55;107662;1287;22706;-86
2022/05/15 09:30:45;;;;;;;17.20;6.10;;;;;;;18.10;43.20;98339.22;107521;1287;22557;-86
2022/05/15 09:33:26;;;;;;;12.20;5.40;;;;;;;18.21;43.80;98337.33;106731;1287;24055;-85
2022/05/15 09:36:16;;;;;;;11.40;5.10;;;;;;;18.04;43.61;98334.88;105629;1287;24007;-83
2022/05/15 09:38:45;;;;;;;11.00;5.00;;;;;;;17.97;44.00;98334.77;105613;1287;22490;-85
2022/05/15 09:44:25;;;;;;;10.00;4.90;;;;;;;17.76;44.58;98341.88;105211;1287;22579;-87
2022/05/15 09:47:18;;;;;;;9.40;4.80;;;;;;;17.73;44.83;98342.41;105023;1287;25624;-85
2022/05/15 09:49:46;;;;;;;12.90;6.00;;;;;;;17.66;45.38;98355.96;105103;1287;24233;-85
2022/05/15 09:52:25;;;;;;;11.80;5.00;;;;;;;17.48;45.46;98354.35;105155;1287;22576;-84
2022/05/15 09:55:07;;;;;;;14.50;5.70;;;;;;;17.41;46.01;98351.98;105039;1287;24286;-84
2022/05/15 09:57:36;;;;;;;13.30;6.00;;;;;;;17.45;46.10;98345.37;104842;1288;23963;-86
2022/05/15 10:00:09;;;;;;;10.20;5.70;;;;;;;17.75;45.82;98342.43;105028;1287;22667;-84
2022/05/15 10:02:39;;;;;;;10.90;5.40;;;;;;;18.06;45.30;98339.23;105175;1287;22709;-84
2022/05/15 10:05:32;;;;;;;9.80;5.00;;;;;;;18.35;44.15;98343.80;106585;1287;22801;-84
2022/05/15 10:08:24;;;;;;;10.00;4.60;;;;;;;18.55;43.14;98343.66;105074;1287;22577;-85
2022/05/15 10:10:59;;;;;;;11.50;5.00;;;;;;;18.46;42.98;98344.61;104857;1287;25377;-84
2022/05/15 10:13:36;;;;;;;13.80;5.90;;;;;;;18.22;43.21;98345.69;104936;1287;22609;-85
2022/05/15 10:16:14;;;;;;;12.60;5.10;;;;;;;18.21;43.65;98346.35;105121;1287;22677;-86
2022/05/15 10:19:02;;;;;;;13.50;5.70;;;;;;;18.42;43.20;98346.84;104816;1287;188199;-86
2022/05/15 10:21:40;;;;;;;12.70;5.10;;;;;;;18.57;42.43;98347.17;104718;1287;22574;-84
2022/05/15 10:24:17;;;;;;;10.10;4.20;;;;;;;18.78;42.29;98339.66;105005;1287;22572;-85
2022/05/15 10:26:58;;;;;;;12.40;4.60;;;;;;;18.98;41.26;98342.88;104808;1287;24201;-84
2022/05/15 10:29:57;;;;;;;7.70;4.20;;;;;;;19.06;40.88;98335.16;104841;1287;24281;-86
2022/05/15 10:32:33;;;;;;;11.80;4.60;;;;;;;19.03;41.21;98339.99;105391;1287;22569;-85
2022/05/15 10:35:01;;;;;;;11.70;5.00;;;;;;;18.73;40.69;98339.05;104756;1287;22665;-86
2022/05/15 10:37:54;;;;;;;10.40;4.60;;;;;;;18.38;40.74;98346.22;104870;1287;24151;-86
2022/05/15 10:40:39;;;;;;;9.60;4.30;;;;;;;18.32;40.23;98345.55;105026;1287;24181;-86
2022/05/15 10:43:32;;;;;;;11.70;5.30;;;;;;;18.44;40.46;98341.68;105111;1287;23243;-85
2022/05/15 10:46:06;;;;;;;10.60;4.50;;;;;;;18.66;40.34;98330.23;105182;1287;22569;-86
2022/05/15 10:48:53;;;;;;;9.30;5.00;;;;;;;18.67;40.71;98336.88;104810;1287;22662;-86
2022/05/15 10:51:35;;;;;;;12.00;4.70;;;;;;;18.81;40.54;98335.48;104803;1287;24267;-86
2022/05/15 10:57:30;;;;;;;11.80;4.10;;;;;;;19.12;38.99;98334.15;107209;1287;22693;-84
2022/05/15 11:00:08;;;;;;;9.80;4.40;;;;;;;19.12;38.49;98330.81;106866;1287;22516;-86
2022/05/15 11:03:01;;;;;;;13.00;4.70;;;;;;;19.13;39.11;98333.72;104732;1287;22638;-84
2022/05/15 11:05:53;;;;;;;8.70;4.30;;;;;;;18.93;39.54;98328.59;104789;1287;22642;-86
2022/05/15 11:08:35;;;;;;;6.70;3.70;;;;;;;18.80;39.27;98322.42;104678;1289;26631;-86
2022/05/15 11:11:28;;;;;;;9.40;4.60;;;;;;;18.79;39.20;98322.24;104777;1287;25374;-83
2022/05/15 11:14:08;;;;;;;8.80;4.60;;;;;;;18.74;39.33;98321.77;104867;1287;22625;-86
2022/05/15 11:17:07;;;;;;;8.90;4.00;;;;;;;18.72;39.68;98329.17;104945;1287;24245;-85
2022/05/15 11:19:41;;;;;;;9.30;4.30;;;;;;;18.92;38.67;98324.45;105154;1287;24444;-86
2022/05/15 11:22:31;;;;;;;7.60;4.00;;;;;;;18.85;38.46;98328.90;105118;1287;24115;-86
2022/05/15 11:25:28;;;;;;;9.10;4.40;;;;;;;18.69;38.99;98322.20;104995;1287;22756;-86
2022/05/15 11:28:28;;;;;;;7.60;3.80;;;;;;;18.99;38.45;98315.67;105026;1287;22639;-86
2022/05/15 11:31:13;;;;;;;9.50;4.60;;;;;;;19.18;38.92;98316.25;105107;1287;24224;-86
2022/05/15 11:33:44;;;;;;;6.70;3.50;;;;;;;19.40;38.19;98308.89;105166;1288;22563;-86
2022/05/15 11:36:14;;;;;;;6.90;3.50;;;;;;;19.19;37.88;98316.75;104966;1287;23031;-87
2022/05/15 11:38:59;;;;;;;10.20;4.10;;;;;;;19.22;37.49;98311.65;104986;1287;22714;-86
2022/05/15 11:41:36;;;;;;;10.90;4.60;;;;;;;19.40;36.60;98306.04;104938;1288;25317;-85
2022/05/15 11:44:10;;;;;;;8.90;4.10;;;;;;;19.63;36.42;98308.46;104692;1287;25256;-85
2022/05/15 11:46:59;;;;;;;6.40;3.70;;;;;;;19.59;36.13;98307.20;104996;1288;24336;-85
2022/05/15 11:49:35;;;;;;;6.80;3.70;;;;;;;19.30;36.51;98309.02;105074;1287;24329;-86
2022/05/15 11:52:08;;;;;;;9.30;3.80;;;;;;;19.34;36.16;98306.08;104971;1288;24390;-87
2022/05/15 11:54:52;;;;;;;8.80;4.20;;;;;;;19.61;36.08;98302.47;104978;1287;22623;-87